< Typhoon 196318 1963 Season Typhoon 196320 >
Typhoon 196319 (LOLA)
General InformationTrack Information on Google Maps || Disaster Info.ResourceGoogle EarthGE AnimationAtom FeedGeoJSON
Detalied Best Track (Time Zone = UTC)
Year Month Day Hour Lat. Long. Pressure (hPa) Wind (kt) Class Image Chart
1963 10 6 00 7.1 164.9 1008 0 2 -- Chart
1963 10 6 06 7.4 163.5 1004 0 2 -- Chart
1963 10 6 12 7.8 162.1 1006 0 2 -- Chart
1963 10 6 18 8.0 160.5 1006 0 2 -- Chart
1963 10 7 00 8.2 158.9 1006 0 2 -- Chart
1963 10 7 06 8.4 157.6 1006 0 2 -- Chart
1963 10 7 12 8.5 156.3 1006 0 2 -- Chart
1963 10 7 18 8.6 155.1 1006 0 2 -- Chart
1963 10 8 00 8.7 153.8 1006 0 2 -- Chart
1963 10 8 06 8.8 152.9 1004 0 2 -- Chart
1963 10 8 12 9.2 152.3 1004 0 2 -- Chart
1963 10 8 18 9.8 151.7 1004 0 2 -- Chart
1963 10 9 00 10.3 151.2 1004 0 2 -- Chart
1963 10 9 06 10.8 150.7 1004 0 2 -- Chart
1963 10 9 12 11.4 150.3 1004 0 2 -- Chart
1963 10 9 18 12.4 149.6 1004 0 2 -- Chart
1963 10 10 00 13.1 148.6 1006 0 2 -- Chart
1963 10 10 06 13.9 147.7 1004 0 2 -- Chart
1963 10 10 12 14.5 146.7 1006 0 2 -- Chart
1963 10 10 18 14.5 145.8 1004 0 2 -- Chart
1963 10 11 00 14.2 145.0 1004 0 2 -- Chart
1963 10 11 06 14.0 144.2 1002 0 2 -- Chart
1963 10 11 12 13.7 143.5 1002 0 2 -- Chart
1963 10 11 18 13.7 142.7 1002 0 2 -- Chart
1963 10 12 00 13.9 142.1 1002 0 2 -- Chart
1963 10 12 06 14.2 142.3 1000 0 9 -- Chart
1963 10 12 12 14.3 142.7 1000 0 9 -- Chart
1963 10 12 18 14.5 143.2 998 0 9 -- Chart
1963 10 13 00 14.6 143.6 998 0 9 -- Chart
1963 10 13 06 14.8 144.2 996 0 9 -- Chart
1963 10 13 12 15.1 144.5 996 0 9 -- Chart
1963 10 13 18 16.0 144.5 994 0 9 -- Chart
1963 10 14 00 16.8 144.1 992 0 9 -- Chart
1963 10 14 06 17.4 143.7 985 0 9 -- Chart
1963 10 14 12 17.5 143.5 985 0 9 -- Chart
1963 10 14 18 17.8 143.4 985 0 9 -- Chart
1963 10 15 00 18.2 142.8 985 0 9 -- Chart
1963 10 15 06 18.5 141.8 985 0 9 -- Chart
1963 10 15 12 18.6 141.3 975 0 9 -- Chart
1963 10 15 18 18.6 140.9 965 0 9 -- Chart
1963 10 16 00 19.1 140.2 964 0 9 -- Chart
1963 10 16 06 19.4 138.8 958 0 9 -- Chart
1963 10 16 12 19.7 137.8 952 0 9 -- Chart
1963 10 16 18 19.9 137.1 948 0 9 -- Chart
1963 10 17 00 20.0 136.6 945 0 9 -- Chart
1963 10 17 06 20.5 135.9 943 0 9 -- Chart
1963 10 17 12 21.2 135.9 945 0 9 -- Chart
1963 10 17 18 21.9 135.9 946 0 9 -- Chart
1963 10 18 00 22.6 136.1 946 0 9 -- Chart
1963 10 18 06 23.7 136.5 950 0 9 -- Chart
1963 10 18 12 24.2 136.8 960 0 9 -- Chart
1963 10 18 18 25.6 137.4 960 0 9 -- Chart
1963 10 19 00 26.8 137.8 965 0 9 -- Chart
1963 10 19 06 28.2 138.2 960 0 9 -- Chart
1963 10 19 12 30.2 139.6 960 0 9 -- Chart
1963 10 19 18 32.4 142.2 965 0 9 -- Chart
1963 10 20 00 34.2 144.9 985 0 6 -- Chart
1963 10 20 06 35.6 147.8 985 0 6 -- Chart
1963 10 20 12 36.9 150.6 990 0 6 -- Chart
1963 10 20 18 38.0 153.9 990 0 6 -- Chart
1963 10 21 00 39.3 156.7 990 0 6 -- Chart
1963 10 21 06 41.0 161.0 998 0 6 -- Chart
1963 10 21 12 42.8 165.1 996 0 6 -- Chart
1963 10 21 18 44.2 169.7 996 0 6 -- Chart
1963 10 22 00 45.8 175.1 992 0 6 -- Chart
1963 10 22 06 47.2 181.0 990 0 6 -- Chart
Japan Meteorological Agency Best Track Data | Correction Date : 1990-10-17
< Typhoon 196318 1963 Season Typhoon 196320 >

Help